Wardeh — ODUS — position and weather

sailwx.info

Track history (hours):
 
Tides and Currents Weather Stations Pressure Air Temp Water Temp Dewpoint Dewpoint Depression Visibility Wind Speed Wind Dir Waves Ship Positions

Wardeh

Last reported at 2014-Jul-31 08:07 UTC. Time now 2014-Aug-23 17:21 UTC.
Position N 36°24' W 001°27'.
Warning: this ship's position is 23 days out of date.

; draft 6.4 m.

Type: Cargo ship. MMSI: 450522000.

Date/timePositionNaut miles runAvg speedWind from/ knotsBaromVisibWave heightAir tempDewpointWater temp
2014-Jul-31 08:07N 36°24' W 001°27'2414.4
2014-Jul-31 06:27N 36°28' W 000°57'1314.3
2014-Jul-31 05:33N 36°30' W 000°41'1413.5
2014-Jul-31 04:32N 36°32' W 000°24'1212.5
2014-Jul-31 03:32N 36°34' W 000°09'1212.5
2014-Jul-31 02:33N 36°36' E 000°06'1413.7
2014-Jul-31 01:33N 36°38' E 000°23'1414.1
2014-Jul-31 00:33N 36°41' E 000°40'1413.8
2014-Jul-30 23:32N 36°43' E 000°57'1514.2
2014-Jul-30 22:27N 36°45' E 001°16'1314.1
2014-Jul-30 21:33N 36°46' E 001°32'1514.3
2014-Jul-30 20:32N 36°49' E 001°50'1313.6
2014-Jul-30 19:33N 36°52' E 002°06'1514.0
2014-Jul-30 18:27N 36°55' E 002°25'1314.1
2014-Jul-30 17:33N 36°57' E 002°41'1313.3
2014-Jul-30 16:33N 36°60' E 002°57'1312.9
2014-Jul-30 15:33N 37°02' E 003°13'1413.5
2014-Jul-30 14:31N 37°04' E 003°30'29913.6
2014-Jul-29 16:33N 37°39' E 009°44'6512.7
2014-Jul-29 11:25N 37°28' E 011°05'5614.4
2014-Jul-29 07:31N 37°02' E 012°08'1414.2
2014-Jul-29 06:33N 36°56' E 012°23'1413.8
2014-Jul-29 05:32N 36°50' E 012°39'1313.6
2014-Jul-29 04:33N 36°45' E 012°54'1413.8
2014-Jul-29 03:33N 36°39' E 013°10'1413.9
2014-Jul-29 02:34N 36°32' E 013°25'1414.4
2014-Jul-29 01:33N 36°26' E 013°41'1514.7
2014-Jul-29 00:33N 36°18' E 013°57'1414.6
2014-Jul-28 23:34N 36°11' E 014°12'1813.9
2014-Jul-28 22:15N 36°03' E 014°32'811.7
2014-Jul-28 21:34N 35°55' E 014°37'5 4.7
2014-Jul-28 20:32N 35°51' E 014°36'0 0.0
2014-Jul-28 19:29N 35°51' E 014°36'0 0.0
2014-Jul-28 18:29N 35°51' E 014°36'0 0.0
2014-Jul-28 17:32N 35°51' E 014°36'0 0.0
2014-Jul-28 16:32N 35°51' E 014°36'0 0.0
2014-Jul-28 15:32N 35°51' E 014°36'0 0.0
2014-Jul-28 14:32N 35°51' E 014°36'0 0.0
2014-Jul-28 13:32N 35°51' E 014°36'0 0.1
2014-Jul-28 12:32N 35°51' E 014°36'1 0.8
2014-Jul-28 11:33N 35°50' E 014°37'7 7.5
2014-Jul-28 10:33N 35°51' E 014°46'9 8.8
2014-Jul-28 09:33N 35°51' E 014°57'5 5.0
2014-Jul-28 08:28N 35°52' E 015°03'0 0.4
2014-Jul-28 07:31N 35°52' E 015°03'1 0.6
2014-Jul-28 06:31N 35°53' E 015°03'1 0.7
2014-Jul-28 05:31N 35°53' E 015°02'1 0.8
2014-Jul-28 04:31N 35°54' E 015°02'1 1.1
2014-Jul-28 03:13N 35°55' E 015°01'1 1.3
2014-Jul-28 02:25N 35°56' E 015°00'  
2014-Jul-24 23:31N 34°06' E 033°11'2512.8
2014-Jul-24 21:32N 34°03' E 033°42'1312.9
2014-Jul-24 20:33N 34°02' E 033°57'1312.6
2014-Jul-24 19:33N 34°00' E 034°12'1312.6
2014-Jul-24 18:33N 33°59' E 034°27'1612.9
2014-Jul-24 17:19N 33°57' E 034°46'2312.9
2014-Jul-24 15:32N 33°56' E 035°14'15 0.6
2014-Jul-23 14:28N 33°54' E 035°31'  
Track history (hours):
 
Tides and Currents Weather Stations Pressure Air Temp Water Temp Dewpoint Dewpoint Depression Visibility Wind Speed Wind Dir Waves Ship Positions

Wardeh

Last reported at 2014-Jul-31 08:07 UTC. Time now 2014-Aug-23 17:21 UTC.
Position N 36°24' W 001°27'.
Warning: this ship's position is 23 days out of date.

; draft 6.4 m.

Type: Cargo ship. MMSI: 450522000.

Date/timePositionNaut miles runAvg speedWind from/ knotsBaromVisibWave heightAir tempDewpointWater temp
2014-Jul-31 08:07N 36°24' W 001°27'2414.4
2014-Jul-31 06:27N 36°28' W 000°57'1314.3
2014-Jul-31 05:33N 36°30' W 000°41'1413.5
2014-Jul-31 04:32N 36°32' W 000°24'1212.5
2014-Jul-31 03:32N 36°34' W 000°09'1212.5
2014-Jul-31 02:33N 36°36' E 000°06'1413.7
2014-Jul-31 01:33N 36°38' E 000°23'1414.1
2014-Jul-31 00:33N 36°41' E 000°40'1413.8
2014-Jul-30 23:32N 36°43' E 000°57'1514.2
2014-Jul-30 22:27N 36°45' E 001°16'1314.1
2014-Jul-30 21:33N 36°46' E 001°32'1514.3
2014-Jul-30 20:32N 36°49' E 001°50'1313.6
2014-Jul-30 19:33N 36°52' E 002°06'1514.0
2014-Jul-30 18:27N 36°55' E 002°25'1314.1
2014-Jul-30 17:33N 36°57' E 002°41'1313.3
2014-Jul-30 16:33N 36°60' E 002°57'1312.9
2014-Jul-30 15:33N 37°02' E 003°13'1413.5
2014-Jul-30 14:31N 37°04' E 003°30'29913.6
2014-Jul-29 16:33N 37°39' E 009°44'6512.7
2014-Jul-29 11:25N 37°28' E 011°05'5614.4
2014-Jul-29 07:31N 37°02' E 012°08'1414.2
2014-Jul-29 06:33N 36°56' E 012°23'1413.8
2014-Jul-29 05:32N 36°50' E 012°39'1313.6
2014-Jul-29 04:33N 36°45' E 012°54'1413.8
2014-Jul-29 03:33N 36°39' E 013°10'1413.9
2014-Jul-29 02:34N 36°32' E 013°25'1414.4
2014-Jul-29 01:33N 36°26' E 013°41'1514.7
2014-Jul-29 00:33N 36°18' E 013°57'1414.6
2014-Jul-28 23:34N 36°11' E 014°12'1813.9
2014-Jul-28 22:15N 36°03' E 014°32'811.7
2014-Jul-28 21:34N 35°55' E 014°37'5 4.7
2014-Jul-28 20:32N 35°51' E 014°36'0 0.0
2014-Jul-28 19:29N 35°51' E 014°36'0 0.0
2014-Jul-28 18:29N 35°51' E 014°36'0 0.0
2014-Jul-28 17:32N 35°51' E 014°36'0 0.0
2014-Jul-28 16:32N 35°51' E 014°36'0 0.0
2014-Jul-28 15:32N 35°51' E 014°36'0 0.0
2014-Jul-28 14:32N 35°51' E 014°36'0 0.0
2014-Jul-28 13:32N 35°51' E 014°36'0 0.1
2014-Jul-28 12:32N 35°51' E 014°36'1 0.8
2014-Jul-28 11:33N 35°50' E 014°37'7 7.5
2014-Jul-28 10:33N 35°51' E 014°46'9 8.8
2014-Jul-28 09:33N 35°51' E 014°57'5 5.0
2014-Jul-28 08:28N 35°52' E 015°03'0 0.4
2014-Jul-28 07:31N 35°52' E 015°03'1 0.6
2014-Jul-28 06:31N 35°53' E 015°03'1 0.7
2014-Jul-28 05:31N 35°53' E 015°02'1 0.8
2014-Jul-28 04:31N 35°54' E 015°02'1 1.1
2014-Jul-28 03:13N 35°55' E 015°01'1 1.3
2014-Jul-28 02:25N 35°56' E 015°00'  
2014-Jul-24 23:31N 34°06' E 033°11'2512.8
2014-Jul-24 21:32N 34°03' E 033°42'1312.9
2014-Jul-24 20:33N 34°02' E 033°57'1312.6
2014-Jul-24 19:33N 34°00' E 034°12'1312.6
2014-Jul-24 18:33N 33°59' E 034°27'1612.9
2014-Jul-24 17:19N 33°57' E 034°46'2312.9
2014-Jul-24 15:32N 33°56' E 035°14'15 0.6
2014-Jul-23 14:28N 33°54' E 035°31'  

Dump ship's entire track history